x

Stonewall Bank - 20nm West Of Newport, Or (46050) Wave Buoy

5:50am - Wed 27th Aug 2014 All times are PDT. -7 hours from GMT.

  • Sig Wave height 4.3ft
  • Swell Direction
  • Peak Period 8s
  • Average Period 6s
  • Wind
    9mph
  • Sea Temp 51°f
  • Air Temp 55°f
  • Sea Pressure 1017.8mb
  • Stonewall Bank - 20nm West Of Newport, Or
  • Stonewall Bank - 20nm West Of Newport, Or

More Historic Weather Station data

Upgrade to MSW Pro to gain access to the past 30 days of data for over 8000 Wavebouys and Weather Stations around the globe.

Join Pro

Comparision Forecast

View Surf forecast
   
Wed 08/27 5:50am 4.5ft 8s 6s 9
mph
1017.8mb 51f 55f
4:50am 4.5ft 8s 6s 11
mph
1017.4mb 51f 55f
3:50am 4.5ft 6s 5s 7 9 mph 1017.2mb 51f 55f
2:50am 4.5ft 7s 6s 9 11 mph 1017.2mb 51f 56f
1:50am 4.5ft 7s 5s 7 9 mph 1017mb 51f 55f
12:50am 4.5ft 6s 5s 11 13 mph 1017mb 51f 56f
Tue 08/26 11:50pm 4.5ft 6s 5s 9 11 mph 1016.9mb 51f 56f
10:50pm 4.5ft 6s 5s 9 13 mph 1016.7mb 52f 56f
9:50pm 4.5ft 6s 5s 11 13 mph 1016.8mb 51f 56f
8:50pm 4.5ft 6s 5s 13 18 mph 1016.4mb 52f 57f
7:50pm 4.5ft 7s 5s 11 13 mph 1016.3mb 51f 56f
6:50pm 5ft 7s 5s 11
mph
1016.4mb 51f 56f
5:50pm 5ft 7s 5s 11
mph
1016.5mb 51f 56f
4:50pm 5ft 6s 5s 11 13 mph 1016.9mb 51f 56f
3:50pm 5ft 7s 5s 13 16 mph 1016.9mb 52f 57f
2:50pm 5ft 6s 5s 13 16 mph 1016.9mb 51f 56f
1:50pm 5ft 6s 5s 13 16 mph 1017.3mb 51f 56f
12:50pm 5ft 7s 5s 11
mph
1017.3mb 51f 55f
11:50am 5ft 7s 6s 11
mph
1017.4mb 50f 55f
10:50am 5ft 7s 5s 13 16 mph 1017.3mb 50f 54f
9:50am 5ft 8s 5s 11 13 mph 1017.4mb 50f 55f
8:50am 5ft 8s 5s 13 16 mph 1017.1mb 51f 55f
7:50am 5.5ft 8s 5s 13 16 mph 1016.8mb 51f 55f
6:50am 5.5ft 7s 5s 16 18 mph 1016.3mb 52f 55f
5:50am 6ft 7s 6s 13 18 mph 1015.8mb 52f 55f
4:50am 6ft 8s 6s 13 18 mph 1015.8mb 52f 55f
3:50am 6ft 7s 5s 16 20 mph 1015.3mb 52f 56f
2:50am 6.5ft 8s 6s 16 18 mph 1015.1mb 51f 56f
1:50am 6.5ft 8s 6s 16 18 mph 1014.9mb 52f 56f
12:50am 6.5ft 8s 5s 16 18 mph 1015mb 52f 56f
Mon 08/25 11:50pm 6.5ft 8s 6s 16 18 mph 1014.9mb 52f 56f
10:50pm 7ft 8s 6s 16 20 mph 1014.8mb 52f 57f
9:50pm 7ft 8s 6s 11 13 mph 1015mb 51f 56f
8:50pm 6.5ft 8s 6s 13 16 mph 1014.6mb 51f 57f
7:50pm 6ft 8s 6s 11 13 mph 1014.3mb 52f 57f
6:50pm 6.5ft 8s 6s 11 13 mph 1014.3mb 53f 58f
5:50pm 6ft 8s 6s 11 13 mph 1014.3mb 53f 58f
4:50pm 6ft 9s 6s 13 16 mph 1014.1mb 53f 58f
3:50pm 6ft 8s 6s 13 16 mph 1014.2mb 53f 58f
2:50pm 5.5ft 8s 6s 16
mph
1014.4mb 53f 57f
1:50pm 6ft 8s 6s 13 16 mph 1014.7mb 53f 57f
12:50pm 7ft 8s 7s 9 11 mph 1014.8mb 52f 56f
11:50am 7ft 9s 6s 13 16 mph 1015.1mb 52f 56f
10:50am 7ft 8s 6s 11 13 mph 1015.2mb 52f 55f
9:50am 8ft 8s 6s 11 13 mph 1015.4mb 52f 54f
8:50am 7ft 8s 6s 11 13 mph 1015.3mb 52f 54f
7:50am 7ft 8s 6s 13 16 mph 1014.7mb 52f 55f
6:50am 6ft 8s 6s 11 13 mph 1014.6mb 52f 55f
5:50am 6ft 8s 6s 13 16 mph 1014mb 52f 55f
4:50am 5ft 6s 5s 13 16 mph 1013.8mb 52f 55f
3:50am 5ft 7s 5s 13 16 mph 1013.5mb 52f 56f
2:50am 4.5ft 6s 5s 9 11 mph 1013.9mb 53f 57f
1:50am 3.5ft 7s 5s 11 13 mph 1014mb 53f 57f
12:50am 4ft 7s 5s 9 11 mph 1013.8mb 53f 57f
Sun 08/24 11:50pm 3.5ft 7s 5s 9 11 mph 1014mb 53f 57f
10:50pm 4ft 7s 5s 7 9 mph 1013.8mb 53f 57f
9:50pm 3.5ft 7s 5s 11 13 mph 1013.9mb 53f 58f
8:50pm 3.5ft 7s 5s 11 13 mph 1013.9mb 52f 58f
7:50pm 3.5ft 7s 5s 13
mph
1013.8mb 52f 58f
6:50pm 4.5ft 7s 5s 11 13 mph 1013.7mb 52f 58f
5:50pm 3.5ft 7s 5s 9 13 mph 1013.8mb 53f 58f
4:50pm 4ft 7s 5s 11 13 mph 1013.9mb 54f 59f
3:50pm 4ft 7s 5s 9 11 mph 1014.4mb 54f 58f
2:50pm 4.5ft 6s 5s 7
mph
1014.9mb 54f 57f
1:50pm 4.5ft 7s 6s 4 7 mph 1015mb 54f 57f
12:50pm 4.5ft 7s 5s 7 9 mph 1015.3mb 53f 56f
11:50am 5ft 7s 6s 2 4 mph 1015.8mb 53f 56f
10:50am 5ft 7s 6s 7 9 mph 1016.3mb 52f 55f
9:50am 5.5ft 7s 6s 4
mph
1016.1mb 52f 55f
8:50am  -   -   -  7 9 mph 1016.4mb 52f 55f
7:50am 5.5ft 8s 6s 9 11 mph 1016.2mb 52f 54f
6:50am 6ft 7s 6s 9 11 mph 1016.3mb 52f 55f
5:50am 6ft 8s 6s 13 16 mph 1016.2mb 52f 57f
4:50am 6.5ft 8s 6s 18 20 mph 1016.2mb 52f 57f
3:50am 6ft 8s 5s 18 20 mph 1016.1mb 52f 57f
2:50am 6ft 8s 5s 18 20 mph 1016.3mb 53f 57f
1:50am 6.5ft 8s 6s 16 18 mph 1016.5mb 52f 58f
12:50am 6.5ft 7s 5s 13 16 mph 1016.8mb 52f 57f
Sat 08/23 11:50pm 6ft 7s 5s 13 16 mph 1017mb 52f 57f
10:50pm 6.5ft 7s 5s 13 16 mph 1017mb 53f 57f
9:50pm 6.5ft 7s 5s 16 18 mph 1017.1mb 53f 58f
8:50pm 5.5ft 5s 5s 13 18 mph 1017mb 53f 57f
7:50pm 5ft 8s 5s 13 18 mph 1016.8mb 53f 58f
6:50pm  -   -   -  13 16 mph 1016.9mb 53f 58f
5:50pm 5ft 8s 5s 16 18 mph 1017.4mb 54f 58f
4:50pm 5.5ft 7s 6s 13
mph
1017.6mb 54f 58f
3:50pm 5ft 7s 5s 16 18 mph 1018mb 54f 58f
2:50pm 5ft 8s 6s 16 18 mph 1018.5mb 54f 57f